sensor_id;sensor_type;location;lat;lon;timestamp;P1;durP1;ratioP1;P2;durP2;ratioP2
65463;SDS011;52063;45.110;9.870;2023-04-05T00:00:27;1.40;;;1.00;;
65463;SDS011;52063;45.110;9.870;2023-04-05T00:02:58;1.40;;;1.10;;
65463;SDS011;52063;45.110;9.870;2023-04-05T00:05:25;1.63;;;1.00;;
65463;SDS011;52063;45.110;9.870;2023-04-05T00:07:57;1.87;;;1.20;;
65463;SDS011;52063;45.110;9.870;2023-04-05T00:10:25;1.80;;;1.00;;
65463;SDS011;52063;45.110;9.870;2023-04-05T00:12:51;1.45;;;1.10;;
65463;SDS011;52063;45.110;9.870;2023-04-05T00:15:16;1.40;;;1.30;;
65463;SDS011;52063;45.110;9.870;2023-04-05T00:17:43;1.30;;;0.77;;
65463;SDS011;52063;45.110;9.870;2023-04-05T00:20:09;1.13;;;1.00;;
65463;SDS011;52063;45.110;9.870;2023-04-05T00:22:35;1.85;;;1.08;;
65463;SDS011;52063;45.110;9.870;2023-04-05T00:25:01;1.77;;;1.20;;
65463;SDS011;52063;45.110;9.870;2023-04-05T00:27:27;1.25;;;1.00;;
65463;SDS011;52063;45.110;9.870;2023-04-05T00:29:53;1.30;;;1.00;;
65463;SDS011;52063;45.110;9.870;2023-04-05T00:32:18;2.00;;;1.00;;
65463;SDS011;52063;45.110;9.870;2023-04-05T00:34:43;2.67;;;1.30;;
65463;SDS011;52063;45.110;9.870;2023-04-05T00:37:10;1.50;;;1.20;;
65463;SDS011;52063;45.110;9.870;2023-04-05T00:39:36;2.15;;;0.95;;
65463;SDS011;52063;45.110;9.870;2023-04-05T00:42:02;1.80;;;1.10;;
65463;SDS011;52063;45.110;9.870;2023-04-05T00:44:31;1.20;;;1.00;;
65463;SDS011;52063;45.110;9.870;2023-04-05T00:47:02;1.65;;;0.90;;
65463;SDS011;52063;45.110;9.870;2023-04-05T00:49:32;1.63;;;1.10;;
65463;SDS011;52063;45.110;9.870;2023-04-05T00:51:59;1.00;;;0.90;;
65463;SDS011;52063;45.110;9.870;2023-04-05T00:54:25;1.42;;;1.20;;
65463;SDS011;52063;45.110;9.870;2023-04-05T00:56:54;1.52;;;1.00;;
65463;SDS011;52063;45.110;9.870;2023-04-05T00:59:20;2.35;;;1.13;;
65463;SDS011;52063;45.110;9.870;2023-04-05T01:01:45;4.53;;;1.10;;
65463;SDS011;52063;45.110;9.870;2023-04-05T01:04:25;1.20;;;1.10;;
65463;SDS011;52063;45.110;9.870;2023-04-05T01:09:47;1.42;;;1.15;;
65463;SDS011;52063;45.110;9.870;2023-04-05T01:12:18;1.70;;;1.10;;
65463;SDS011;52063;45.110;9.870;2023-04-05T01:14:46;1.63;;;1.30;;
65463;SDS011;52063;45.110;9.870;2023-04-05T01:17:15;1.52;;;1.10;;
65463;SDS011;52063;45.110;9.870;2023-04-05T01:19:46;1.85;;;1.00;;
65463;SDS011;52063;45.110;9.870;2023-04-05T01:25:01;1.37;;;0.90;;
65463;SDS011;52063;45.110;9.870;2023-04-05T01:30:31;1.83;;;1.05;;
65463;SDS011;52063;45.110;9.870;2023-04-05T01:33:06;1.17;;;0.70;;
65463;SDS011;52063;45.110;9.870;2023-04-05T01:35:53;2.42;;;1.00;;
65463;SDS011;52063;45.110;9.870;2023-04-05T01:38:22;1.80;;;1.20;;
65463;SDS011;52063;45.110;9.870;2023-04-05T01:40:51;1.30;;;1.00;;
65463;SDS011;52063;45.110;9.870;2023-04-05T01:43:17;3.70;;;1.00;;
65463;SDS011;52063;45.110;9.870;2023-04-05T01:45:43;1.00;;;0.70;;
65463;SDS011;52063;45.110;9.870;2023-04-05T01:48:10;1.47;;;0.80;;
65463;SDS011;52063;45.110;9.870;2023-04-05T01:50:36;1.50;;;1.20;;
65463;SDS011;52063;45.110;9.870;2023-04-05T01:53:02;1.20;;;1.10;;
65463;SDS011;52063;45.110;9.870;2023-04-05T01:55:27;1.55;;;0.80;;
65463;SDS011;52063;45.110;9.870;2023-04-05T01:57:53;1.27;;;0.90;;
65463;SDS011;52063;45.110;9.870;2023-04-05T02:00:20;1.92;;;0.70;;
65463;SDS011;52063;45.110;9.870;2023-04-05T02:02:46;2.10;;;0.82;;
65463;SDS011;52063;45.110;9.870;2023-04-05T02:05:11;1.13;;;1.00;;
65463;SDS011;52063;45.110;9.870;2023-04-05T02:07:37;1.05;;;0.93;;
65463;SDS011;52063;45.110;9.870;2023-04-05T02:10:02;1.10;;;0.70;;
65463;SDS011;52063;45.110;9.870;2023-04-05T02:12:28;1.10;;;0.73;;
65463;SDS011;52063;45.110;9.870;2023-04-05T02:14:54;1.13;;;0.90;;
65463;SDS011;52063;45.110;9.870;2023-04-05T02:17:19;1.70;;;1.10;;
65463;SDS011;52063;45.110;9.870;2023-04-05T02:19:46;2.88;;;0.90;;
65463;SDS011;52063;45.110;9.870;2023-04-05T02:22:12;1.40;;;0.80;;
65463;SDS011;52063;45.110;9.870;2023-04-05T02:24:37;1.13;;;1.00;;
65463;SDS011;52063;45.110;9.870;2023-04-05T02:27:03;1.33;;;0.90;;
65463;SDS011;52063;45.110;9.870;2023-04-05T02:29:29;1.00;;;0.90;;
65463;SDS011;52063;45.110;9.870;2023-04-05T02:31:56;1.77;;;0.95;;
65463;SDS011;52063;45.110;9.870;2023-04-05T02:34:21;2.07;;;1.10;;
65463;SDS011;52063;45.110;9.870;2023-04-05T02:36:48;1.98;;;1.17;;
65463;SDS011;52063;45.110;9.870;2023-04-05T02:39:16;2.57;;;0.90;;
65463;SDS011;52063;45.110;9.870;2023-04-05T02:41:41;2.55;;;1.00;;
65463;SDS011;52063;45.110;9.870;2023-04-05T02:44:08;1.20;;;0.93;;
65463;SDS011;52063;45.110;9.870;2023-04-05T02:46:34;1.42;;;0.90;;
65463;SDS011;52063;45.110;9.870;2023-04-05T02:49:00;1.50;;;0.90;;
65463;SDS011;52063;45.110;9.870;2023-04-05T02:51:27;1.60;;;0.80;;
65463;SDS011;52063;45.110;9.870;2023-04-05T02:53:53;1.10;;;0.90;;
65463;SDS011;52063;45.110;9.870;2023-04-05T02:56:19;1.20;;;1.00;;
65463;SDS011;52063;45.110;9.870;2023-04-05T02:58:46;1.30;;;1.13;;
65463;SDS011;52063;45.110;9.870;2023-04-05T03:01:17;1.13;;;1.02;;
65463;SDS011;52063;45.110;9.870;2023-04-05T03:03:44;1.27;;;0.88;;
65463;SDS011;52063;45.110;9.870;2023-04-05T03:06:09;2.00;;;1.03;;
65463;SDS011;52063;45.110;9.870;2023-04-05T03:08:41;1.55;;;1.10;;
65463;SDS011;52063;45.110;9.870;2023-04-05T03:11:12;1.30;;;1.00;;
65463;SDS011;52063;45.110;9.870;2023-04-05T03:13:41;1.38;;;1.27;;
65463;SDS011;52063;45.110;9.870;2023-04-05T03:16:15;1.50;;;1.40;;
65463;SDS011;52063;45.110;9.870;2023-04-05T03:18:42;1.37;;;1.10;;
65463;SDS011;52063;45.110;9.870;2023-04-05T03:21:09;1.95;;;1.25;;
65463;SDS011;52063;45.110;9.870;2023-04-05T03:23:38;2.17;;;0.93;;
65463;SDS011;52063;45.110;9.870;2023-04-05T03:26:04;1.10;;;0.93;;
65463;SDS011;52063;45.110;9.870;2023-04-05T03:28:34;1.15;;;0.80;;
65463;SDS011;52063;45.110;9.870;2023-04-05T03:31:03;1.10;;;1.00;;
65463;SDS011;52063;45.110;9.870;2023-04-05T03:33:29;1.08;;;0.88;;
65463;SDS011;52063;45.110;9.870;2023-04-05T03:35:55;1.13;;;1.03;;
65463;SDS011;52063;45.110;9.870;2023-04-05T03:38:21;1.20;;;1.00;;
65463;SDS011;52063;45.110;9.870;2023-04-05T03:41:03;1.58;;;0.90;;
65463;SDS011;52063;45.110;9.870;2023-04-05T03:43:29;1.20;;;1.00;;
65463;SDS011;52063;45.110;9.870;2023-04-05T03:45:54;2.07;;;1.00;;
65463;SDS011;52063;45.110;9.870;2023-04-05T03:48:21;1.42;;;0.95;;
65463;SDS011;52063;45.110;9.870;2023-04-05T03:50:48;1.43;;;1.07;;
65463;SDS011;52063;45.110;9.870;2023-04-05T03:53:13;1.33;;;1.02;;
65463;SDS011;52063;45.110;9.870;2023-04-05T03:55:45;1.30;;;0.90;;
65463;SDS011;52063;45.110;9.870;2023-04-05T03:58:15;1.90;;;1.20;;
65463;SDS011;52063;45.110;9.870;2023-04-05T04:00:41;1.30;;;1.20;;
65463;SDS011;52063;45.110;9.870;2023-04-05T04:03:19;1.70;;;1.10;;
65463;SDS011;52063;45.110;9.870;2023-04-05T04:05:48;4.72;;;1.00;;
65463;SDS011;52063;45.110;9.870;2023-04-05T04:08:13;1.50;;;1.00;;
65463;SDS011;52063;45.110;9.870;2023-04-05T04:10:39;1.30;;;1.20;;
65463;SDS011;52063;45.110;9.870;2023-04-05T04:13:14;3.85;;;1.00;;
65463;SDS011;52063;45.110;9.870;2023-04-05T04:15:41;1.33;;;1.00;;
65463;SDS011;52063;45.110;9.870;2023-04-05T04:18:32;1.20;;;1.05;;
65463;SDS011;52063;45.110;9.870;2023-04-05T04:21:17;2.03;;;0.90;;
65463;SDS011;52063;45.110;9.870;2023-04-05T04:24:19;3.65;;;1.10;;
65463;SDS011;52063;45.110;9.870;2023-04-05T04:27:02;2.20;;;1.30;;
65463;SDS011;52063;45.110;9.870;2023-04-05T04:29:44;1.33;;;1.20;;
65463;SDS011;52063;45.110;9.870;2023-04-05T04:32:42;2.17;;;1.20;;
65463;SDS011;52063;45.110;9.870;2023-04-05T04:35:35;1.52;;;1.23;;
65463;SDS011;52063;45.110;9.870;2023-04-05T04:38:26;2.10;;;0.90;;
65463;SDS011;52063;45.110;9.870;2023-04-05T04:41:22;1.33;;;1.00;;
65463;SDS011;52063;45.110;9.870;2023-04-05T04:44:09;2.27;;;1.20;;
65463;SDS011;52063;45.110;9.870;2023-04-05T04:46:59;1.60;;;1.00;;
65463;SDS011;52063;45.110;9.870;2023-04-05T04:49:42;1.10;;;0.80;;
65463;SDS011;52063;45.110;9.870;2023-04-05T04:52:08;1.23;;;0.90;;
65463;SDS011;52063;45.110;9.870;2023-04-05T04:54:36;1.45;;;1.00;;
65463;SDS011;52063;45.110;9.870;2023-04-05T04:57:01;1.17;;;1.00;;
65463;SDS011;52063;45.110;9.870;2023-04-05T04:59:27;2.08;;;1.02;;
65463;SDS011;52063;45.110;9.870;2023-04-05T05:01:53;1.20;;;0.80;;
65463;SDS011;52063;45.110;9.870;2023-04-05T05:04:19;1.23;;;1.00;;
65463;SDS011;52063;45.110;9.870;2023-04-05T05:06:44;1.17;;;1.07;;
65463;SDS011;52063;45.110;9.870;2023-04-05T05:09:09;2.10;;;1.33;;
65463;SDS011;52063;45.110;9.870;2023-04-05T05:11:44;1.60;;;0.90;;
65463;SDS011;52063;45.110;9.870;2023-04-05T05:14:10;3.80;;;1.00;;
65463;SDS011;52063;45.110;9.870;2023-04-05T05:16:36;2.13;;;1.10;;
65463;SDS011;52063;45.110;9.870;2023-04-05T05:19:01;1.33;;;0.90;;
65463;SDS011;52063;45.110;9.870;2023-04-05T05:21:37;2.40;;;2.00;;
65463;SDS011;52063;45.110;9.870;2023-04-05T05:24:02;2.00;;;0.80;;
65463;SDS011;52063;45.110;9.870;2023-04-05T05:26:31;1.30;;;0.98;;
65463;SDS011;52063;45.110;9.870;2023-04-05T05:28:59;1.20;;;1.10;;
65463;SDS011;52063;45.110;9.870;2023-04-05T05:31:27;1.35;;;0.90;;
65463;SDS011;52063;45.110;9.870;2023-04-05T05:33:53;1.27;;;1.00;;
65463;SDS011;52063;45.110;9.870;2023-04-05T05:36:18;1.90;;;1.13;;
65463;SDS011;52063;45.110;9.870;2023-04-05T05:38:44;1.37;;;1.20;;
65463;SDS011;52063;45.110;9.870;2023-04-05T05:41:10;1.52;;;1.00;;
65463;SDS011;52063;45.110;9.870;2023-04-05T05:43:35;1.20;;;0.97;;
65463;SDS011;52063;45.110;9.870;2023-04-05T05:46:01;1.43;;;1.33;;
65463;SDS011;52063;45.110;9.870;2023-04-05T05:48:26;1.15;;;1.02;;
65463;SDS011;52063;45.110;9.870;2023-04-05T05:50:52;1.50;;;1.40;;
65463;SDS011;52063;45.110;9.870;2023-04-05T05:53:18;1.40;;;1.30;;
65463;SDS011;52063;45.110;9.870;2023-04-05T05:55:44;1.10;;;0.80;;
65463;SDS011;52063;45.110;9.870;2023-04-05T05:58:10;1.45;;;1.15;;
65463;SDS011;52063;45.110;9.870;2023-04-05T06:00:36;1.70;;;1.20;;
65463;SDS011;52063;45.110;9.870;2023-04-05T06:03:03;2.10;;;1.10;;
65463;SDS011;52063;45.110;9.870;2023-04-05T06:05:29;2.10;;;1.10;;
65463;SDS011;52063;45.110;9.870;2023-04-05T06:07:55;1.43;;;1.00;;
65463;SDS011;52063;45.110;9.870;2023-04-05T06:10:21;1.77;;;1.05;;
65463;SDS011;52063;45.110;9.870;2023-04-05T06:12:48;1.67;;;1.20;;
65463;SDS011;52063;45.110;9.870;2023-04-05T06:15:14;2.67;;;1.30;;
65463;SDS011;52063;45.110;9.870;2023-04-05T06:17:40;1.30;;;1.20;;
65463;SDS011;52063;45.110;9.870;2023-04-05T06:20:07;1.30;;;1.20;;
65463;SDS011;52063;45.110;9.870;2023-04-05T06:22:34;1.42;;;1.00;;
65463;SDS011;52063;45.110;9.870;2023-04-05T06:25:00;1.15;;;1.00;;
65463;SDS011;52063;45.110;9.870;2023-04-05T06:27:26;1.37;;;1.27;;
65463;SDS011;52063;45.110;9.870;2023-04-05T06:29:51;1.20;;;1.10;;
65463;SDS011;52063;45.110;9.870;2023-04-05T06:32:18;1.48;;;1.35;;
65463;SDS011;52063;45.110;9.870;2023-04-05T06:34:43;1.07;;;0.97;;
65463;SDS011;52063;45.110;9.870;2023-04-05T06:37:12;2.85;;;1.20;;
65463;SDS011;52063;45.110;9.870;2023-04-05T06:39:37;1.37;;;1.10;;
65463;SDS011;52063;45.110;9.870;2023-04-05T06:42:03;1.60;;;1.00;;
65463;SDS011;52063;45.110;9.870;2023-04-05T06:44:37;1.75;;;1.10;;
65463;SDS011;52063;45.110;9.870;2023-04-05T06:47:02;1.50;;;1.20;;
65463;SDS011;52063;45.110;9.870;2023-04-05T06:49:29;0.95;;;0.85;;
65463;SDS011;52063;45.110;9.870;2023-04-05T06:51:54;1.60;;;1.20;;
65463;SDS011;52063;45.110;9.870;2023-04-05T06:54:20;1.85;;;1.00;;
65463;SDS011;52063;45.110;9.870;2023-04-05T06:56:47;1.30;;;1.20;;
65463;SDS011;52063;45.110;9.870;2023-04-05T06:59:12;2.22;;;1.00;;
65463;SDS011;52063;45.110;9.870;2023-04-05T07:01:38;1.00;;;0.83;;
65463;SDS011;52063;45.110;9.870;2023-04-05T07:04:03;1.40;;;1.30;;
65463;SDS011;52063;45.110;9.870;2023-04-05T07:06:29;2.38;;;1.10;;
65463;SDS011;52063;45.110;9.870;2023-04-05T07:08:55;1.97;;;1.30;;
65463;SDS011;52063;45.110;9.870;2023-04-05T07:11:21;1.40;;;1.30;;
65463;SDS011;52063;45.110;9.870;2023-04-05T07:13:46;2.17;;;1.27;;
65463;SDS011;52063;45.110;9.870;2023-04-05T07:16:12;1.60;;;1.00;;
65463;SDS011;52063;45.110;9.870;2023-04-05T07:18:37;2.63;;;1.10;;
65463;SDS011;52063;45.110;9.870;2023-04-05T07:21:02;1.30;;;1.10;;
65463;SDS011;52063;45.110;9.870;2023-04-05T07:23:29;1.40;;;1.10;;
65463;SDS011;52063;45.110;9.870;2023-04-05T07:25:55;3.45;;;1.20;;
65463;SDS011;52063;45.110;9.870;2023-04-05T07:28:24;1.10;;;0.95;;
65463;SDS011;52063;45.110;9.870;2023-04-05T07:30:50;2.00;;;1.30;;
65463;SDS011;52063;45.110;9.870;2023-04-05T07:33:16;1.20;;;1.10;;
65463;SDS011;52063;45.110;9.870;2023-04-05T07:35:41;1.47;;;1.03;;
65463;SDS011;52063;45.110;9.870;2023-04-05T07:38:07;2.20;;;1.30;;
65463;SDS011;52063;45.110;9.870;2023-04-05T07:40:33;1.60;;;1.10;;
65463;SDS011;52063;45.110;9.870;2023-04-05T07:42:59;2.27;;;1.37;;
65463;SDS011;52063;45.110;9.870;2023-04-05T07:45:24;8.73;;;2.57;;
65463;SDS011;52063;45.110;9.870;2023-04-05T07:47:49;5.80;;;2.60;;
65463;SDS011;52063;45.110;9.870;2023-04-05T07:50:15;7.13;;;3.00;;
65463;SDS011;52063;45.110;9.870;2023-04-05T07:52:41;5.43;;;3.47;;
65463;SDS011;52063;45.110;9.870;2023-04-05T07:55:07;6.17;;;3.33;;
65463;SDS011;52063;45.110;9.870;2023-04-05T07:57:33;7.53;;;3.58;;
65463;SDS011;52063;45.110;9.870;2023-04-05T07:59:59;7.13;;;4.00;;
65463;SDS011;52063;45.110;9.870;2023-04-05T08:02:25;4.37;;;3.50;;
65463;SDS011;52063;45.110;9.870;2023-04-05T08:04:50;12.35;;;3.85;;
65463;SDS011;52063;45.110;9.870;2023-04-05T08:07:16;4.70;;;3.90;;
65463;SDS011;52063;45.110;9.870;2023-04-05T08:09:41;14.43;;;4.50;;
65463;SDS011;52063;45.110;9.870;2023-04-05T08:12:07;13.27;;;4.03;;
65463;SDS011;52063;45.110;9.870;2023-04-05T08:14:32;5.97;;;3.97;;
65463;SDS011;52063;45.110;9.870;2023-04-05T08:16:58;5.90;;;3.77;;
65463;SDS011;52063;45.110;9.870;2023-04-05T08:19:23;6.80;;;4.33;;
65463;SDS011;52063;45.110;9.870;2023-04-05T08:21:48;7.00;;;4.40;;
65463;SDS011;52063;45.110;9.870;2023-04-05T08:24:14;5.47;;;3.70;;
65463;SDS011;52063;45.110;9.870;2023-04-05T08:26:40;8.88;;;4.00;;
65463;SDS011;52063;45.110;9.870;2023-04-05T08:29:06;9.70;;;4.17;;
65463;SDS011;52063;45.110;9.870;2023-04-05T08:31:31;8.80;;;3.78;;
65463;SDS011;52063;45.110;9.870;2023-04-05T08:33:58;7.23;;;4.23;;
65463;SDS011;52063;45.110;9.870;2023-04-05T08:36:23;6.32;;;3.88;;
65463;SDS011;52063;45.110;9.870;2023-04-05T08:38:49;4.87;;;3.27;;
65463;SDS011;52063;45.110;9.870;2023-04-05T08:41:17;7.37;;;3.40;;
65463;SDS011;52063;45.110;9.870;2023-04-05T08:46:13;7.03;;;4.18;;
65463;SDS011;52063;45.110;9.870;2023-04-05T08:48:40;9.85;;;4.03;;
65463;SDS011;52063;45.110;9.870;2023-04-05T08:51:06;8.97;;;4.00;;
65463;SDS011;52063;45.110;9.870;2023-04-05T08:53:33;7.05;;;3.90;;
65463;SDS011;52063;45.110;9.870;2023-04-05T08:55:59;11.20;;;4.10;;
65463;SDS011;52063;45.110;9.870;2023-04-05T08:58:25;8.45;;;3.42;;
65463;SDS011;52063;45.110;9.870;2023-04-05T09:00:51;4.57;;;3.78;;
65463;SDS011;52063;45.110;9.870;2023-04-05T09:03:18;8.25;;;3.92;;
65463;SDS011;52063;45.110;9.870;2023-04-05T09:05:48;7.38;;;4.05;;
65463;SDS011;52063;45.110;9.870;2023-04-05T09:08:16;6.77;;;3.63;;
65463;SDS011;52063;45.110;9.870;2023-04-05T09:10:41;10.35;;;3.65;;
65463;SDS011;52063;45.110;9.870;2023-04-05T09:13:07;6.80;;;3.90;;
65463;SDS011;52063;45.110;9.870;2023-04-05T09:15:34;6.80;;;4.30;;
65463;SDS011;52063;45.110;9.870;2023-04-05T09:18:00;8.10;;;3.90;;
65463;SDS011;52063;45.110;9.870;2023-04-05T09:20:26;4.87;;;3.80;;
65463;SDS011;52063;45.110;9.870;2023-04-05T09:22:51;4.95;;;3.92;;
65463;SDS011;52063;45.110;9.870;2023-04-05T09:27:59;4.57;;;3.95;;
65463;SDS011;52063;45.110;9.870;2023-04-05T09:30:25;5.43;;;3.43;;
65463;SDS011;52063;45.110;9.870;2023-04-05T09:32:52;7.03;;;3.80;;
65463;SDS011;52063;45.110;9.870;2023-04-05T09:35:40;7.05;;;3.63;;
65463;SDS011;52063;45.110;9.870;2023-04-05T09:38:05;7.72;;;3.70;;
65463;SDS011;52063;45.110;9.870;2023-04-05T09:40:39;4.70;;;3.40;;
65463;SDS011;52063;45.110;9.870;2023-04-05T09:46:03;6.68;;;3.60;;
65463;SDS011;52063;45.110;9.870;2023-04-05T09:48:44;4.77;;;3.30;;
65463;SDS011;52063;45.110;9.870;2023-04-05T09:51:11;5.38;;;3.40;;
65463;SDS011;52063;45.110;9.870;2023-04-05T09:56:52;7.50;;;2.90;;
65463;SDS011;52063;45.110;9.870;2023-04-05T09:59:18;5.82;;;3.28;;
65463;SDS011;52063;45.110;9.870;2023-04-05T10:01:44;3.50;;;2.63;;
65463;SDS011;52063;45.110;9.870;2023-04-05T10:04:17;6.97;;;3.00;;
65463;SDS011;52063;45.110;9.870;2023-04-05T10:06:43;8.57;;;3.00;;
65463;SDS011;52063;45.110;9.870;2023-04-05T10:09:09;4.72;;;2.90;;
65463;SDS011;52063;45.110;9.870;2023-04-05T10:11:38;3.60;;;2.60;;
65463;SDS011;52063;45.110;9.870;2023-04-05T10:14:05;3.95;;;2.65;;
65463;SDS011;52063;45.110;9.870;2023-04-05T10:16:32;6.05;;;3.00;;
65463;SDS011;52063;45.110;9.870;2023-04-05T10:19:02;3.60;;;2.55;;
65463;SDS011;52063;45.110;9.870;2023-04-05T10:21:31;5.00;;;2.60;;
65463;SDS011;52063;45.110;9.870;2023-04-05T10:27:07;4.60;;;2.67;;
65463;SDS011;52063;45.110;9.870;2023-04-05T10:29:42;4.22;;;2.40;;
65463;SDS011;52063;45.110;9.870;2023-04-05T10:33:15;4.78;;;2.70;;
65463;SDS011;52063;45.110;9.870;2023-04-05T10:35:42;2.70;;;2.13;;
65463;SDS011;52063;45.110;9.870;2023-04-05T10:40:42;5.88;;;2.20;;
65463;SDS011;52063;45.110;9.870;2023-04-05T10:43:14;4.13;;;2.33;;
65463;SDS011;52063;45.110;9.870;2023-04-05T10:45:41;4.22;;;2.63;;
65463;SDS011;52063;45.110;9.870;2023-04-05T10:48:15;3.47;;;2.42;;
65463;SDS011;52063;45.110;9.870;2023-04-05T10:50:46;6.90;;;2.40;;
65463;SDS011;52063;45.110;9.870;2023-04-05T10:53:12;4.28;;;2.25;;
65463;SDS011;52063;45.110;9.870;2023-04-05T10:55:38;5.13;;;2.38;;
65463;SDS011;52063;45.110;9.870;2023-04-05T10:58:03;3.57;;;2.03;;
65463;SDS011;52063;45.110;9.870;2023-04-05T11:00:29;4.80;;;2.30;;
65463;SDS011;52063;45.110;9.870;2023-04-05T11:02:55;6.80;;;2.23;;
65463;SDS011;52063;45.110;9.870;2023-04-05T11:05:31;4.82;;;2.00;;
65463;SDS011;52063;45.110;9.870;2023-04-05T11:08:05;4.00;;;2.15;;
65463;SDS011;52063;45.110;9.870;2023-04-05T11:10:31;5.85;;;2.70;;
65463;SDS011;52063;45.110;9.870;2023-04-05T11:18:04;6.10;;;2.38;;
65463;SDS011;52063;45.110;9.870;2023-04-05T11:20:39;4.40;;;2.00;;
65463;SDS011;52063;45.110;9.870;2023-04-05T11:23:12;4.65;;;2.30;;
65463;SDS011;52063;45.110;9.870;2023-04-05T11:25:39;4.47;;;2.33;;
65463;SDS011;52063;45.110;9.870;2023-04-05T11:28:05;4.47;;;2.25;;
65463;SDS011;52063;45.110;9.870;2023-04-05T11:30:45;3.85;;;2.25;;
65463;SDS011;52063;45.110;9.870;2023-04-05T11:33:17;3.97;;;2.00;;
65463;SDS011;52063;45.110;9.870;2023-04-05T11:36:09;4.40;;;2.05;;
65463;SDS011;52063;45.110;9.870;2023-04-05T11:38:35;5.07;;;2.20;;
65463;SDS011;52063;45.110;9.870;2023-04-05T11:41:11;2.35;;;1.83;;
65463;SDS011;52063;45.110;9.870;2023-04-05T11:43:41;2.57;;;1.53;;
65463;SDS011;52063;45.110;9.870;2023-04-05T11:46:15;3.70;;;2.00;;
65463;SDS011;52063;45.110;9.870;2023-04-05T11:48:40;3.75;;;1.80;;
65463;SDS011;52063;45.110;9.870;2023-04-05T11:51:07;3.23;;;1.87;;
65463;SDS011;52063;45.110;9.870;2023-04-05T11:53:34;3.53;;;1.92;;
65463;SDS011;52063;45.110;9.870;2023-04-05T11:56:06;2.97;;;1.97;;
65463;SDS011;52063;45.110;9.870;2023-04-05T11:58:33;3.10;;;2.00;;
65463;SDS011;52063;45.110;9.870;2023-04-05T12:01:05;4.33;;;1.77;;
65463;SDS011;52063;45.110;9.870;2023-04-05T12:03:34;4.90;;;1.90;;
65463;SDS011;52063;45.110;9.870;2023-04-05T12:06:01;5.00;;;2.03;;
65463;SDS011;52063;45.110;9.870;2023-04-05T12:08:40;6.57;;;2.20;;
65463;SDS011;52063;45.110;9.870;2023-04-05T12:11:14;2.90;;;1.45;;
65463;SDS011;52063;45.110;9.870;2023-04-05T12:13:52;3.37;;;1.90;;
65463;SDS011;52063;45.110;9.870;2023-04-05T12:16:19;6.32;;;1.75;;
65463;SDS011;52063;45.110;9.870;2023-04-05T12:18:44;4.95;;;2.00;;
65463;SDS011;52063;45.110;9.870;2023-04-05T12:21:26;6.00;;;2.20;;
65463;SDS011;52063;45.110;9.870;2023-04-05T12:23:52;2.40;;;1.75;;
65463;SDS011;52063;45.110;9.870;2023-04-05T12:26:18;5.72;;;1.80;;
65463;SDS011;52063;45.110;9.870;2023-04-05T12:28:51;2.70;;;1.60;;
65463;SDS011;52063;45.110;9.870;2023-04-05T12:34:05;3.93;;;1.87;;
65463;SDS011;52063;45.110;9.870;2023-04-05T12:36:31;3.47;;;1.92;;
65463;SDS011;52063;45.110;9.870;2023-04-05T12:38:57;3.90;;;1.85;;
65463;SDS011;52063;45.110;9.870;2023-04-05T12:41:29;4.13;;;1.70;;
65463;SDS011;52063;45.110;9.870;2023-04-05T12:43:55;7.47;;;1.70;;
65463;SDS011;52063;45.110;9.870;2023-04-05T12:46:39;3.03;;;1.77;;
65463;SDS011;52063;45.110;9.870;2023-04-05T12:49:05;3.10;;;1.75;;
65463;SDS011;52063;45.110;9.870;2023-04-05T12:51:31;2.33;;;1.67;;
65463;SDS011;52063;45.110;9.870;2023-04-05T12:53:57;2.43;;;1.80;;
65463;SDS011;52063;45.110;9.870;2023-04-05T12:56:27;3.65;;;1.75;;
65463;SDS011;52063;45.110;9.870;2023-04-05T12:58:54;2.25;;;1.67;;
65463;SDS011;52063;45.110;9.870;2023-04-05T13:01:19;5.17;;;2.27;;
65463;SDS011;52063;45.110;9.870;2023-04-05T13:03:45;5.63;;;1.80;;
65463;SDS011;52063;45.110;9.870;2023-04-05T13:06:11;2.67;;;1.60;;
65463;SDS011;52063;45.110;9.870;2023-04-05T13:08:36;3.53;;;1.70;;
65463;SDS011;52063;45.110;9.870;2023-04-05T13:11:02;3.92;;;1.88;;
65463;SDS011;52063;45.110;9.870;2023-04-05T13:13:27;2.93;;;1.37;;
65463;SDS011;52063;45.110;9.870;2023-04-05T13:15:53;2.33;;;1.77;;
65463;SDS011;52063;45.110;9.870;2023-04-05T13:18:18;3.63;;;1.92;;
65463;SDS011;52063;45.110;9.870;2023-04-05T13:20:44;2.77;;;1.70;;
65463;SDS011;52063;45.110;9.870;2023-04-05T13:23:10;3.58;;;1.63;;
65463;SDS011;52063;45.110;9.870;2023-04-05T13:25:40;3.30;;;1.55;;
65463;SDS011;52063;45.110;9.870;2023-04-05T13:28:06;5.03;;;2.00;;
65463;SDS011;52063;45.110;9.870;2023-04-05T13:30:32;2.78;;;1.40;;
65463;SDS011;52063;45.110;9.870;2023-04-05T13:32:58;2.20;;;1.50;;
65463;SDS011;52063;45.110;9.870;2023-04-05T13:35:23;2.27;;;1.80;;
65463;SDS011;52063;45.110;9.870;2023-04-05T13:37:48;2.63;;;1.73;;
65463;SDS011;52063;45.110;9.870;2023-04-05T13:40:14;4.90;;;1.58;;
65463;SDS011;52063;45.110;9.870;2023-04-05T13:42:42;4.03;;;1.30;;
65463;SDS011;52063;45.110;9.870;2023-04-05T13:45:08;2.17;;;1.45;;
65463;SDS011;52063;45.110;9.870;2023-04-05T13:47:34;4.53;;;1.80;;
65463;SDS011;52063;45.110;9.870;2023-04-05T13:50:00;3.75;;;1.60;;
65463;SDS011;52063;45.110;9.870;2023-04-05T13:52:27;2.10;;;1.30;;
65463;SDS011;52063;45.110;9.870;2023-04-05T13:54:52;3.23;;;1.70;;
65463;SDS011;52063;45.110;9.870;2023-04-05T13:57:18;2.25;;;1.50;;
65463;SDS011;52063;45.110;9.870;2023-04-05T13:59:43;9.13;;;1.50;;
65463;SDS011;52063;45.110;9.870;2023-04-05T14:02:09;3.23;;;1.53;;
65463;SDS011;52063;45.110;9.870;2023-04-05T14:04:36;2.45;;;1.58;;
65463;SDS011;52063;45.110;9.870;2023-04-05T14:07:03;2.33;;;1.80;;
65463;SDS011;52063;45.110;9.870;2023-04-05T14:09:28;1.93;;;1.50;;
65463;SDS011;52063;45.110;9.870;2023-04-05T14:11:54;3.13;;;1.60;;
65463;SDS011;52063;45.110;9.870;2023-04-05T14:14:21;2.55;;;1.60;;
65463;SDS011;52063;45.110;9.870;2023-04-05T14:16:47;4.00;;;1.65;;
65463;SDS011;52063;45.110;9.870;2023-04-05T14:19:12;2.33;;;1.47;;
65463;SDS011;52063;45.110;9.870;2023-04-05T14:21:40;1.40;;;1.27;;
65463;SDS011;52063;45.110;9.870;2023-04-05T14:24:06;4.00;;;1.90;;
65463;SDS011;52063;45.110;9.870;2023-04-05T14:26:31;1.95;;;1.40;;
65463;SDS011;52063;45.110;9.870;2023-04-05T14:28:57;3.30;;;1.60;;
65463;SDS011;52063;45.110;9.870;2023-04-05T14:31:22;2.67;;;1.43;;
65463;SDS011;52063;45.110;9.870;2023-04-05T14:33:49;2.47;;;1.50;;
65463;SDS011;52063;45.110;9.870;2023-04-05T14:36:15;3.38;;;1.77;;
65463;SDS011;52063;45.110;9.870;2023-04-05T14:38:41;1.90;;;1.40;;
65463;SDS011;52063;45.110;9.870;2023-04-05T14:41:06;2.42;;;1.60;;
65463;SDS011;52063;45.110;9.870;2023-04-05T14:43:32;1.53;;;1.30;;
65463;SDS011;52063;45.110;9.870;2023-04-05T14:45:58;5.75;;;1.70;;
65463;SDS011;52063;45.110;9.870;2023-04-05T14:48:23;1.77;;;1.40;;
65463;SDS011;52063;45.110;9.870;2023-04-05T14:50:49;4.18;;;1.50;;
65463;SDS011;52063;45.110;9.870;2023-04-05T14:53:15;2.87;;;1.50;;
65463;SDS011;52063;45.110;9.870;2023-04-05T14:55:40;2.43;;;1.20;;
65463;SDS011;52063;45.110;9.870;2023-04-05T14:58:05;2.45;;;1.30;;
65463;SDS011;52063;45.110;9.870;2023-04-05T15:00:32;3.33;;;1.30;;
65463;SDS011;52063;45.110;9.870;2023-04-05T15:02:58;2.13;;;1.52;;
65463;SDS011;52063;45.110;9.870;2023-04-05T15:05:24;2.17;;;1.40;;
65463;SDS011;52063;45.110;9.870;2023-04-05T15:07:49;1.80;;;1.50;;
65463;SDS011;52063;45.110;9.870;2023-04-05T15:10:15;2.77;;;1.50;;
65463;SDS011;52063;45.110;9.870;2023-04-05T15:12:42;2.65;;;1.55;;
65463;SDS011;52063;45.110;9.870;2023-04-05T15:15:08;1.83;;;1.43;;
65463;SDS011;52063;45.110;9.870;2023-04-05T15:17:34;2.42;;;1.17;;
65463;SDS011;52063;45.110;9.870;2023-04-05T15:19:59;1.80;;;1.47;;
65463;SDS011;52063;45.110;9.870;2023-04-05T15:22:25;2.50;;;1.40;;
65463;SDS011;52063;45.110;9.870;2023-04-05T15:24:50;2.53;;;1.30;;
65463;SDS011;52063;45.110;9.870;2023-04-05T15:27:16;1.70;;;1.43;;